Relevés horaires Matro (Suisse)


Relevés horaires à Matro - Samedi 25 Avr. 2026
Heure UTC1 Température [°C] Vent [km/h] Hum. [%] Pres.4 [hPa] Visi. [Km] Nébu. [octa] Préc.5 [mm] Cond.
2m. Res. Ros. Dir.2 Vit. Moy. Raf.3
23:00 5.3 0 -4.8 NNO 35.2 -- 48.2 48 850(0.0/3h) -- -- -- --
22:00 5.7 0.3 -4.5 NNO 38.9 -- 55.6 48 850(0.6/3h) -- -- -- --
21:00 5.7 0.3 -4.1 NNO 38.9 -- 53.7 49 850(1.0/3h) -- -- -- --
20:00 6.2 1.5 -4.5 NNO 31.5 -- 51.9 46 850(0.9/3h) -- -- -- --
19:00 6.9 2.3 -6.0 NNO 33.3 -- 48.2 39 850(0.4/3h) -- -- -- --
18:00 7.8 3.6 -8.1 NO 31.5 -- 42.6 31 850(0.0/3h) -- -- -- --
17:00 8.4 4.5 -6.9 NNO 29.6 -- 40.7 33 850(0.1/3h) -- -- -- --
16:00 9.2 6.2 -5.6 NO 22.2 -- 40.7 35 850(-0.1/3h) -- -- -- --
15:00 9.4 7.4 -4.6 NO 13.0 -- 29.6 37 850(-0.2/3h) -- -- -- --
14:00 11.7 10.5 -3.5 O 11.1 -- 25.9 34 850(-0.4/3h) -- -- -- --
13:00 10.5 9.1 -2.3 SO 11.1 -- 25.9 41 850(-0.4/3h) -- -- -- --
12:00 10.2 9.4 -5.4 SSO 7.4 -- 20.4 33 850(-0.4/3h) -- -- -- --
11:00 8.6 8 -6.8 NO 5.6 -- 16.7 33 850(-0.1/3h) -- -- -- --
10:00 8.7 8.7 -7.9 O 3.7 -- 16.7 30 850(0.1/3h) -- -- -- --
09:00 7.9 7.9 -7.6 ONO 3.7 -- 14.8 32 850(0.4/3h) -- -- -- --
08:00 6.7 5.8 -8.5 N 5.6 -- 13.0 33 850(0.6/3h) -- -- -- --
07:00 6.6 6.6 -8.4 N 3.7 -- 9.3 33 850(0.6/3h) -- -- -- --
06:00 5.8 4.2 -10.1 NNO 7.4 -- 22.2 31 850(0.1/3h) -- -- -- --
05:00 6.2 5.2 -12.1 NNO 5.6 -- 13.0 25 850(-0.3/3h) -- -- -- --
04:00 6.2 4.2 -12.0 NO 9.3 -- 16.7 26 850(-0.5/3h) -- -- -- --
03:00 6.2 3.5 -11.6 NNO 13.0 -- 22.2 27 850(-0.6/3h) -- -- -- --
02:00 6.3 3.4 -11.2 ONO 14.8 -- 22.2 27 850(-0.8/3h) -- -- -- --
01:00 6.7 3.9 -12.3 NO 14.8 -- 18.5 24 850(-0.9/3h) -- -- -- --
00:00 6.4 3 -11.7 NNO 18.5 -- 38.9 26 850(-0.4/3h) -- -- -- --

1 Coordinated Universal Time. Actuellement il est 14:00 locale et 12:00 UTC.

2 Le vent souffle depuis la direction indiquée vers la direction oposée.

3 Les rafales max. sont disponible 40 min après l'heure du relevé.

4 Pour les stations d'altitude (plus de 600m) le géopotentiel du niveau le plus proche de la pression obligatoire est indiqué.

5 Les stations disposant d'un diffuseur peuvent indiquer "trace". Cela signifie que des précipitations ont touchés le sol mais que la quantité est inférieure à 0.1 mm.

Copyright

Les données affichées sur cette page sont la propriété exclusive de Météo Suisse.

Récapitulatif de la journée
Température [°C] Vent [km/h] Ensoleillement4 [h] Precipitations totale5 [mm] Pression [Hpa]
Min1 Max.2 Moy.3 Max. Min Max.
5.4 12.2 0 55.6 13 h 18 min 0 850.0 850.0

1 Température minimale relevée entre 18:00 UTC la veille et 18:00 UTC le jour donné.

2 Température maximale relevée entre 06:00 UTC le jour donné et 06:00 UTC le lendemain.

3 Vent moyen de la journée basé sur les relevés horaires.

4 Ensoleillement en heures relevé entre 06:00 UTC la veille et 06:00 UTC le jour donné.

5 Précipitations totales tombées entre 06:00 UTC la jour donné et 06:00 UTC le lendemain.

Graphiques horaires